sensor_id;sensor_type;location;lat;lon;timestamp;P1;durP1;ratioP1;P2;durP2;ratioP2
72951;SDS011;61102;51.956;5.878;2023-04-15T00:00:09;5.57;;;1.50;;
72951;SDS011;61102;51.956;5.878;2023-04-15T00:02:39;6.03;;;1.80;;
72951;SDS011;61102;51.956;5.878;2023-04-15T00:05:05;6.00;;;1.65;;
72951;SDS011;61102;51.956;5.878;2023-04-15T00:07:32;7.00;;;1.45;;
72951;SDS011;61102;51.956;5.878;2023-04-15T00:10:00;6.55;;;1.52;;
72951;SDS011;61102;51.956;5.878;2023-04-15T00:12:26;5.57;;;1.40;;
72951;SDS011;61102;51.956;5.878;2023-04-15T00:14:55;5.40;;;1.50;;
72951;SDS011;61102;51.956;5.878;2023-04-15T00:17:23;5.22;;;1.40;;
72951;SDS011;61102;51.956;5.878;2023-04-15T00:19:49;5.70;;;1.50;;
72951;SDS011;61102;51.956;5.878;2023-04-15T00:22:15;3.88;;;1.20;;
72951;SDS011;61102;51.956;5.878;2023-04-15T00:24:42;4.50;;;1.33;;
72951;SDS011;61102;51.956;5.878;2023-04-15T00:27:08;5.68;;;1.48;;
72951;SDS011;61102;51.956;5.878;2023-04-15T00:29:35;4.75;;;1.25;;
72951;SDS011;61102;51.956;5.878;2023-04-15T00:32:01;6.43;;;1.42;;
72951;SDS011;61102;51.956;5.878;2023-04-15T00:34:27;4.93;;;1.60;;
72951;SDS011;61102;51.956;5.878;2023-04-15T00:36:53;4.25;;;1.10;;
72951;SDS011;61102;51.956;5.878;2023-04-15T00:39:19;4.90;;;1.20;;
72951;SDS011;61102;51.956;5.878;2023-04-15T00:41:46;4.75;;;1.40;;
72951;SDS011;61102;51.956;5.878;2023-04-15T00:44:13;5.60;;;1.73;;
72951;SDS011;61102;51.956;5.878;2023-04-15T00:46:39;4.55;;;1.23;;
72951;SDS011;61102;51.956;5.878;2023-04-15T00:49:17;5.10;;;1.40;;
72951;SDS011;61102;51.956;5.878;2023-04-15T00:51:43;6.20;;;1.60;;
72951;SDS011;61102;51.956;5.878;2023-04-15T00:54:13;4.72;;;1.40;;
72951;SDS011;61102;51.956;5.878;2023-04-15T00:56:42;5.75;;;1.80;;
72951;SDS011;61102;51.956;5.878;2023-04-15T00:59:09;6.68;;;1.50;;
72951;SDS011;61102;51.956;5.878;2023-04-15T01:01:35;3.50;;;1.00;;
72951;SDS011;61102;51.956;5.878;2023-04-15T01:04:02;3.33;;;1.10;;
72951;SDS011;61102;51.956;5.878;2023-04-15T01:06:29;3.80;;;1.15;;
72951;SDS011;61102;51.956;5.878;2023-04-15T01:11:23;2.80;;;1.05;;
72951;SDS011;61102;51.956;5.878;2023-04-15T01:13:50;4.70;;;1.50;;
72951;SDS011;61102;51.956;5.878;2023-04-15T01:18:43;5.25;;;1.60;;
72951;SDS011;61102;51.956;5.878;2023-04-15T01:21:10;2.97;;;1.20;;
72951;SDS011;61102;51.956;5.878;2023-04-15T01:23:37;3.95;;;1.33;;
72951;SDS011;61102;51.956;5.878;2023-04-15T01:26:07;4.82;;;1.50;;
72951;SDS011;61102;51.956;5.878;2023-04-15T01:28:34;6.00;;;1.90;;
72951;SDS011;61102;51.956;5.878;2023-04-15T01:31:10;5.20;;;1.75;;
72951;SDS011;61102;51.956;5.878;2023-04-15T01:33:41;6.30;;;1.80;;
72951;SDS011;61102;51.956;5.878;2023-04-15T01:36:08;4.35;;;1.70;;
72951;SDS011;61102;51.956;5.878;2023-04-15T01:41:02;5.10;;;1.95;;
72951;SDS011;61102;51.956;5.878;2023-04-15T01:43:33;4.85;;;1.50;;
72951;SDS011;61102;51.956;5.878;2023-04-15T01:46:01;4.40;;;1.63;;
72951;SDS011;61102;51.956;5.878;2023-04-15T01:48:27;4.60;;;1.60;;
72951;SDS011;61102;51.956;5.878;2023-04-15T01:50:55;5.05;;;1.50;;
72951;SDS011;61102;51.956;5.878;2023-04-15T01:53:25;3.97;;;1.38;;
72951;SDS011;61102;51.956;5.878;2023-04-15T01:55:51;5.28;;;1.60;;
72951;SDS011;61102;51.956;5.878;2023-04-15T01:58:18;7.03;;;2.25;;
72951;SDS011;61102;51.956;5.878;2023-04-15T02:00:44;5.57;;;1.65;;
72951;SDS011;61102;51.956;5.878;2023-04-15T02:03:10;4.32;;;1.30;;
72951;SDS011;61102;51.956;5.878;2023-04-15T02:05:36;8.38;;;1.92;;
72951;SDS011;61102;51.956;5.878;2023-04-15T02:08:03;4.75;;;1.35;;
72951;SDS011;61102;51.956;5.878;2023-04-15T02:10:29;5.10;;;1.63;;
72951;SDS011;61102;51.956;5.878;2023-04-15T02:12:55;4.55;;;1.60;;
72951;SDS011;61102;51.956;5.878;2023-04-15T02:15:21;5.15;;;1.55;;
72951;SDS011;61102;51.956;5.878;2023-04-15T02:17:49;6.00;;;1.88;;
72951;SDS011;61102;51.956;5.878;2023-04-15T02:20:18;5.63;;;1.83;;
72951;SDS011;61102;51.956;5.878;2023-04-15T02:22:45;4.43;;;1.60;;
72951;SDS011;61102;51.956;5.878;2023-04-15T02:25:14;4.47;;;1.70;;
72951;SDS011;61102;51.956;5.878;2023-04-15T02:27:41;6.60;;;1.73;;
72951;SDS011;61102;51.956;5.878;2023-04-15T02:30:09;4.97;;;1.73;;
72951;SDS011;61102;51.956;5.878;2023-04-15T02:32:35;5.60;;;1.52;;
72951;SDS011;61102;51.956;5.878;2023-04-15T02:35:03;5.68;;;1.80;;
72951;SDS011;61102;51.956;5.878;2023-04-15T02:37:34;6.10;;;2.00;;
72951;SDS011;61102;51.956;5.878;2023-04-15T02:40:07;5.55;;;2.08;;
72951;SDS011;61102;51.956;5.878;2023-04-15T02:42:37;6.65;;;2.00;;
72951;SDS011;61102;51.956;5.878;2023-04-15T02:45:05;5.93;;;2.00;;
72951;SDS011;61102;51.956;5.878;2023-04-15T02:47:34;7.78;;;2.13;;
72951;SDS011;61102;51.956;5.878;2023-04-15T02:50:04;6.38;;;1.90;;
72951;SDS011;61102;51.956;5.878;2023-04-15T02:52:32;5.57;;;1.98;;
72951;SDS011;61102;51.956;5.878;2023-04-15T02:54:58;7.15;;;2.05;;
72951;SDS011;61102;51.956;5.878;2023-04-15T02:57:28;5.70;;;1.75;;
72951;SDS011;61102;51.956;5.878;2023-04-15T02:59:57;4.40;;;1.52;;
72951;SDS011;61102;51.956;5.878;2023-04-15T03:02:23;5.53;;;2.05;;
72951;SDS011;61102;51.956;5.878;2023-04-15T03:04:49;11.60;;;3.60;;
72951;SDS011;61102;51.956;5.878;2023-04-15T03:07:16;6.13;;;2.40;;
72951;SDS011;61102;51.956;5.878;2023-04-15T03:09:46;5.18;;;1.77;;
72951;SDS011;61102;51.956;5.878;2023-04-15T03:12:12;5.70;;;1.77;;
72951;SDS011;61102;51.956;5.878;2023-04-15T03:14:38;5.93;;;2.10;;
72951;SDS011;61102;51.956;5.878;2023-04-15T03:17:04;6.40;;;2.08;;
72951;SDS011;61102;51.956;5.878;2023-04-15T03:19:30;5.82;;;2.10;;
72951;SDS011;61102;51.956;5.878;2023-04-15T03:21:57;4.95;;;1.90;;
72951;SDS011;61102;51.956;5.878;2023-04-15T03:24:23;5.22;;;1.77;;
72951;SDS011;61102;51.956;5.878;2023-04-15T03:26:49;5.43;;;2.03;;
72951;SDS011;61102;51.956;5.878;2023-04-15T03:29:16;5.90;;;2.10;;
72951;SDS011;61102;51.956;5.878;2023-04-15T03:31:44;7.07;;;2.22;;
72951;SDS011;61102;51.956;5.878;2023-04-15T03:34:10;5.95;;;1.80;;
72951;SDS011;61102;51.956;5.878;2023-04-15T03:36:36;6.57;;;2.30;;
72951;SDS011;61102;51.956;5.878;2023-04-15T03:39:02;6.80;;;2.35;;
72951;SDS011;61102;51.956;5.878;2023-04-15T03:41:28;6.60;;;2.25;;
72951;SDS011;61102;51.956;5.878;2023-04-15T03:43:55;9.65;;;3.22;;
72951;SDS011;61102;51.956;5.878;2023-04-15T03:46:21;7.20;;;2.30;;
72951;SDS011;61102;51.956;5.878;2023-04-15T03:48:47;6.22;;;2.22;;
72951;SDS011;61102;51.956;5.878;2023-04-15T03:51:13;7.85;;;2.03;;
72951;SDS011;61102;51.956;5.878;2023-04-15T03:53:40;6.40;;;2.25;;
72951;SDS011;61102;51.956;5.878;2023-04-15T03:56:06;6.90;;;2.65;;
72951;SDS011;61102;51.956;5.878;2023-04-15T03:58:32;7.70;;;2.90;;
72951;SDS011;61102;51.956;5.878;2023-04-15T04:00:58;5.65;;;2.08;;
72951;SDS011;61102;51.956;5.878;2023-04-15T04:03:24;6.85;;;2.53;;
72951;SDS011;61102;51.956;5.878;2023-04-15T04:05:50;5.97;;;2.33;;
72951;SDS011;61102;51.956;5.878;2023-04-15T04:08:17;5.55;;;1.92;;
72951;SDS011;61102;51.956;5.878;2023-04-15T04:10:44;6.95;;;2.50;;
72951;SDS011;61102;51.956;5.878;2023-04-15T04:13:11;5.63;;;2.00;;
72951;SDS011;61102;51.956;5.878;2023-04-15T04:15:37;6.70;;;2.55;;
72951;SDS011;61102;51.956;5.878;2023-04-15T04:18:03;6.35;;;2.15;;
72951;SDS011;61102;51.956;5.878;2023-04-15T04:20:29;8.30;;;2.80;;
72951;SDS011;61102;51.956;5.878;2023-04-15T04:22:56;6.32;;;2.05;;
72951;SDS011;61102;51.956;5.878;2023-04-15T04:25:23;6.10;;;2.40;;
72951;SDS011;61102;51.956;5.878;2023-04-15T04:27:49;7.78;;;2.53;;
72951;SDS011;61102;51.956;5.878;2023-04-15T04:30:15;6.32;;;2.42;;
72951;SDS011;61102;51.956;5.878;2023-04-15T04:32:41;7.15;;;2.40;;
72951;SDS011;61102;51.956;5.878;2023-04-15T04:35:07;7.50;;;2.80;;
72951;SDS011;61102;51.956;5.878;2023-04-15T04:37:33;6.53;;;2.83;;
72951;SDS011;61102;51.956;5.878;2023-04-15T04:40:00;7.75;;;2.90;;
72951;SDS011;61102;51.956;5.878;2023-04-15T04:42:26;7.78;;;2.83;;
72951;SDS011;61102;51.956;5.878;2023-04-15T04:44:52;7.05;;;2.80;;
72951;SDS011;61102;51.956;5.878;2023-04-15T04:47:18;9.38;;;2.63;;
72951;SDS011;61102;51.956;5.878;2023-04-15T04:49:44;8.63;;;2.90;;
72951;SDS011;61102;51.956;5.878;2023-04-15T04:52:10;6.47;;;2.38;;
72951;SDS011;61102;51.956;5.878;2023-04-15T04:54:36;5.75;;;2.17;;
72951;SDS011;61102;51.956;5.878;2023-04-15T04:57:02;5.93;;;1.95;;
72951;SDS011;61102;51.956;5.878;2023-04-15T04:59:28;5.82;;;2.10;;
72951;SDS011;61102;51.956;5.878;2023-04-15T05:01:55;5.85;;;2.20;;
72951;SDS011;61102;51.956;5.878;2023-04-15T05:04:21;6.82;;;2.63;;
72951;SDS011;61102;51.956;5.878;2023-04-15T05:06:47;5.90;;;2.30;;
72951;SDS011;61102;51.956;5.878;2023-04-15T05:09:13;7.22;;;2.80;;
72951;SDS011;61102;51.956;5.878;2023-04-15T05:11:39;6.95;;;3.05;;
72951;SDS011;61102;51.956;5.878;2023-04-15T05:14:05;6.45;;;2.45;;
72951;SDS011;61102;51.956;5.878;2023-04-15T05:16:47;7.20;;;2.17;;
72951;SDS011;61102;51.956;5.878;2023-04-15T05:19:13;6.88;;;2.65;;
72951;SDS011;61102;51.956;5.878;2023-04-15T05:21:39;6.55;;;2.47;;
72951;SDS011;61102;51.956;5.878;2023-04-15T05:24:05;7.25;;;2.47;;
72951;SDS011;61102;51.956;5.878;2023-04-15T05:26:31;6.53;;;2.45;;
72951;SDS011;61102;51.956;5.878;2023-04-15T05:28:57;7.30;;;2.70;;
72951;SDS011;61102;51.956;5.878;2023-04-15T05:31:23;6.20;;;2.55;;
72951;SDS011;61102;51.956;5.878;2023-04-15T05:33:50;7.22;;;3.13;;
72951;SDS011;61102;51.956;5.878;2023-04-15T05:36:16;6.85;;;2.38;;
72951;SDS011;61102;51.956;5.878;2023-04-15T05:38:42;6.75;;;2.70;;
72951;SDS011;61102;51.956;5.878;2023-04-15T05:41:08;6.65;;;2.97;;
72951;SDS011;61102;51.956;5.878;2023-04-15T05:43:34;6.00;;;2.50;;
72951;SDS011;61102;51.956;5.878;2023-04-15T05:46:01;8.02;;;3.50;;
72951;SDS011;61102;51.956;5.878;2023-04-15T05:48:27;7.18;;;2.75;;
72951;SDS011;61102;51.956;5.878;2023-04-15T05:50:53;8.07;;;3.60;;
72951;SDS011;61102;51.956;5.878;2023-04-15T05:53:19;7.80;;;2.67;;
72951;SDS011;61102;51.956;5.878;2023-04-15T05:55:45;6.53;;;2.65;;
72951;SDS011;61102;51.956;5.878;2023-04-15T05:58:11;8.05;;;2.92;;
72951;SDS011;61102;51.956;5.878;2023-04-15T06:00:37;8.18;;;3.20;;
72951;SDS011;61102;51.956;5.878;2023-04-15T06:03:04;8.80;;;3.38;;
72951;SDS011;61102;51.956;5.878;2023-04-15T06:05:30;7.43;;;3.20;;
72951;SDS011;61102;51.956;5.878;2023-04-15T06:07:56;7.05;;;2.05;;
72951;SDS011;61102;51.956;5.878;2023-04-15T06:10:22;6.72;;;2.80;;
72951;SDS011;61102;51.956;5.878;2023-04-15T06:12:49;8.82;;;4.38;;
72951;SDS011;61102;51.956;5.878;2023-04-15T06:15:15;6.13;;;2.40;;
72951;SDS011;61102;51.956;5.878;2023-04-15T06:17:41;6.68;;;2.65;;
72951;SDS011;61102;51.956;5.878;2023-04-15T06:20:07;6.63;;;2.72;;
72951;SDS011;61102;51.956;5.878;2023-04-15T06:22:35;8.57;;;3.97;;
72951;SDS011;61102;51.956;5.878;2023-04-15T06:25:02;7.40;;;3.28;;
72951;SDS011;61102;51.956;5.878;2023-04-15T06:27:29;9.70;;;2.58;;
72951;SDS011;61102;51.956;5.878;2023-04-15T06:29:56;6.20;;;2.42;;
72951;SDS011;61102;51.956;5.878;2023-04-15T06:32:22;6.55;;;2.95;;
72951;SDS011;61102;51.956;5.878;2023-04-15T06:34:48;7.47;;;3.10;;
72951;SDS011;61102;51.956;5.878;2023-04-15T06:37:14;7.93;;;3.90;;
72951;SDS011;61102;51.956;5.878;2023-04-15T06:39:41;7.45;;;3.53;;
72951;SDS011;61102;51.956;5.878;2023-04-15T06:42:08;8.63;;;3.95;;
72951;SDS011;61102;51.956;5.878;2023-04-15T06:44:34;7.25;;;3.17;;
72951;SDS011;61102;51.956;5.878;2023-04-15T06:47:04;5.93;;;2.50;;
72951;SDS011;61102;51.956;5.878;2023-04-15T06:49:30;7.53;;;3.30;;
72951;SDS011;61102;51.956;5.878;2023-04-15T06:51:56;7.82;;;3.22;;
72951;SDS011;61102;51.956;5.878;2023-04-15T06:54:22;8.48;;;3.75;;
72951;SDS011;61102;51.956;5.878;2023-04-15T06:56:48;7.10;;;3.08;;
72951;SDS011;61102;51.956;5.878;2023-04-15T06:59:16;7.70;;;3.45;;
72951;SDS011;61102;51.956;5.878;2023-04-15T07:01:42;7.47;;;3.17;;
72951;SDS011;61102;51.956;5.878;2023-04-15T07:04:08;8.02;;;3.50;;
72951;SDS011;61102;51.956;5.878;2023-04-15T07:06:35;7.50;;;3.40;;
72951;SDS011;61102;51.956;5.878;2023-04-15T07:09:02;7.75;;;3.67;;
72951;SDS011;61102;51.956;5.878;2023-04-15T07:11:29;9.43;;;4.68;;
72951;SDS011;61102;51.956;5.878;2023-04-15T07:13:56;8.65;;;3.63;;
72951;SDS011;61102;51.956;5.878;2023-04-15T07:16:23;8.23;;;3.70;;
72951;SDS011;61102;51.956;5.878;2023-04-15T07:18:49;7.60;;;3.40;;
72951;SDS011;61102;51.956;5.878;2023-04-15T07:21:15;7.57;;;3.35;;
72951;SDS011;61102;51.956;5.878;2023-04-15T07:23:42;7.72;;;3.20;;
72951;SDS011;61102;51.956;5.878;2023-04-15T07:26:08;7.93;;;3.55;;
72951;SDS011;61102;51.956;5.878;2023-04-15T07:28:35;8.27;;;3.40;;
72951;SDS011;61102;51.956;5.878;2023-04-15T07:31:01;6.82;;;2.47;;
72951;SDS011;61102;51.956;5.878;2023-04-15T07:33:27;7.50;;;3.38;;
72951;SDS011;61102;51.956;5.878;2023-04-15T07:35:53;7.10;;;3.10;;
72951;SDS011;61102;51.956;5.878;2023-04-15T07:38:19;6.40;;;2.60;;
72951;SDS011;61102;51.956;5.878;2023-04-15T07:40:46;7.40;;;3.28;;
72951;SDS011;61102;51.956;5.878;2023-04-15T07:43:13;9.88;;;3.25;;
72951;SDS011;61102;51.956;5.878;2023-04-15T07:45:39;7.10;;;3.05;;
72951;SDS011;61102;51.956;5.878;2023-04-15T07:48:05;7.40;;;3.35;;
72951;SDS011;61102;51.956;5.878;2023-04-15T07:50:31;8.13;;;2.92;;
72951;SDS011;61102;51.956;5.878;2023-04-15T07:52:58;8.90;;;3.42;;
72951;SDS011;61102;51.956;5.878;2023-04-15T07:55:24;8.38;;;3.70;;
72951;SDS011;61102;51.956;5.878;2023-04-15T07:57:51;8.00;;;3.45;;
72951;SDS011;61102;51.956;5.878;2023-04-15T08:00:17;7.85;;;3.42;;
72951;SDS011;61102;51.956;5.878;2023-04-15T08:02:43;7.70;;;2.83;;
72951;SDS011;61102;51.956;5.878;2023-04-15T08:05:12;7.60;;;3.30;;
72951;SDS011;61102;51.956;5.878;2023-04-15T08:07:39;7.63;;;3.20;;
72951;SDS011;61102;51.956;5.878;2023-04-15T08:10:05;8.77;;;3.60;;
72951;SDS011;61102;51.956;5.878;2023-04-15T08:12:32;8.35;;;3.00;;
72951;SDS011;61102;51.956;5.878;2023-04-15T08:14:58;7.85;;;2.80;;
72951;SDS011;61102;51.956;5.878;2023-04-15T08:17:24;7.53;;;2.78;;
72951;SDS011;61102;51.956;5.878;2023-04-15T08:19:50;7.72;;;2.78;;
72951;SDS011;61102;51.956;5.878;2023-04-15T08:22:16;6.80;;;3.00;;
72951;SDS011;61102;51.956;5.878;2023-04-15T08:24:43;8.45;;;2.97;;
72951;SDS011;61102;51.956;5.878;2023-04-15T08:27:09;7.22;;;2.83;;
72951;SDS011;61102;51.956;5.878;2023-04-15T08:29:35;7.85;;;2.72;;
72951;SDS011;61102;51.956;5.878;2023-04-15T08:32:01;7.40;;;2.58;;
72951;SDS011;61102;51.956;5.878;2023-04-15T08:34:28;5.70;;;2.15;;
72951;SDS011;61102;51.956;5.878;2023-04-15T08:36:54;7.68;;;2.30;;
72951;SDS011;61102;51.956;5.878;2023-04-15T08:39:21;4.32;;;1.67;;
72951;SDS011;61102;51.956;5.878;2023-04-15T08:41:50;6.18;;;2.30;;
72951;SDS011;61102;51.956;5.878;2023-04-15T08:44:21;5.32;;;1.95;;
72951;SDS011;61102;51.956;5.878;2023-04-15T08:46:48;5.70;;;1.70;;
72951;SDS011;61102;51.956;5.878;2023-04-15T08:49:16;6.35;;;1.95;;
72951;SDS011;61102;51.956;5.878;2023-04-15T08:51:44;5.53;;;1.77;;
72951;SDS011;61102;51.956;5.878;2023-04-15T08:54:10;4.63;;;1.73;;
72951;SDS011;61102;51.956;5.878;2023-04-15T08:56:37;6.13;;;1.90;;
72951;SDS011;61102;51.956;5.878;2023-04-15T08:59:04;6.18;;;2.00;;
72951;SDS011;61102;51.956;5.878;2023-04-15T09:01:31;5.25;;;1.92;;
72951;SDS011;61102;51.956;5.878;2023-04-15T09:03:57;6.65;;;1.88;;
72951;SDS011;61102;51.956;5.878;2023-04-15T09:06:24;4.97;;;1.52;;
72951;SDS011;61102;51.956;5.878;2023-04-15T09:08:50;7.80;;;1.88;;
72951;SDS011;61102;51.956;5.878;2023-04-15T09:11:17;5.72;;;2.00;;
72951;SDS011;61102;51.956;5.878;2023-04-15T09:13:44;4.93;;;1.73;;
72951;SDS011;61102;51.956;5.878;2023-04-15T09:16:12;5.40;;;1.70;;
72951;SDS011;61102;51.956;5.878;2023-04-15T09:18:38;7.65;;;1.80;;
72951;SDS011;61102;51.956;5.878;2023-04-15T09:21:05;5.45;;;1.92;;
72951;SDS011;61102;51.956;5.878;2023-04-15T09:23:33;6.70;;;1.92;;
72951;SDS011;61102;51.956;5.878;2023-04-15T09:28:27;4.82;;;1.60;;
72951;SDS011;61102;51.956;5.878;2023-04-15T09:31:00;5.72;;;1.80;;
72951;SDS011;61102;51.956;5.878;2023-04-15T09:33:27;5.50;;;2.20;;
72951;SDS011;61102;51.956;5.878;2023-04-15T09:35:58;5.72;;;2.20;;
72951;SDS011;61102;51.956;5.878;2023-04-15T09:38:26;6.28;;;2.20;;
72951;SDS011;61102;51.956;5.878;2023-04-15T09:40:53;4.78;;;1.90;;
72951;SDS011;61102;51.956;5.878;2023-04-15T09:43:19;5.82;;;1.92;;
72951;SDS011;61102;51.956;5.878;2023-04-15T09:45:50;5.57;;;1.88;;
72951;SDS011;61102;51.956;5.878;2023-04-15T09:48:23;6.13;;;2.05;;
72951;SDS011;61102;51.956;5.878;2023-04-15T09:50:56;6.28;;;2.10;;
72951;SDS011;61102;51.956;5.878;2023-04-15T09:53:24;9.45;;;2.00;;
72951;SDS011;61102;51.956;5.878;2023-04-15T09:55:51;4.55;;;1.58;;
72951;SDS011;61102;51.956;5.878;2023-04-15T09:58:22;6.35;;;2.10;;
72951;SDS011;61102;51.956;5.878;2023-04-15T10:00:51;4.90;;;1.50;;
72951;SDS011;61102;51.956;5.878;2023-04-15T10:03:22;5.95;;;1.73;;
72951;SDS011;61102;51.956;5.878;2023-04-15T10:05:50;5.38;;;1.60;;
72951;SDS011;61102;51.956;5.878;2023-04-15T10:08:18;4.78;;;1.60;;
72951;SDS011;61102;51.956;5.878;2023-04-15T10:10:46;5.78;;;2.00;;
72951;SDS011;61102;51.956;5.878;2023-04-15T10:13:13;5.25;;;1.85;;
72951;SDS011;61102;51.956;5.878;2023-04-15T10:15:44;4.47;;;1.50;;
72951;SDS011;61102;51.956;5.878;2023-04-15T10:18:18;5.47;;;1.67;;
72951;SDS011;61102;51.956;5.878;2023-04-15T10:20:47;4.72;;;1.50;;
72951;SDS011;61102;51.956;5.878;2023-04-15T10:23:14;6.25;;;1.92;;
72951;SDS011;61102;51.956;5.878;2023-04-15T10:25:40;4.72;;;1.55;;
72951;SDS011;61102;51.956;5.878;2023-04-15T10:28:06;5.60;;;1.77;;
72951;SDS011;61102;51.956;5.878;2023-04-15T10:30:33;4.38;;;1.40;;
72951;SDS011;61102;51.956;5.878;2023-04-15T10:33:01;4.75;;;1.65;;
72951;SDS011;61102;51.956;5.878;2023-04-15T10:35:31;5.15;;;1.40;;
72951;SDS011;61102;51.956;5.878;2023-04-15T10:37:58;4.53;;;1.52;;
72951;SDS011;61102;51.956;5.878;2023-04-15T10:40:28;4.88;;;1.73;;
72951;SDS011;61102;51.956;5.878;2023-04-15T10:42:59;4.40;;;1.30;;
72951;SDS011;61102;51.956;5.878;2023-04-15T10:45:34;4.38;;;1.35;;
72951;SDS011;61102;51.956;5.878;2023-04-15T10:48:02;4.10;;;1.50;;
72951;SDS011;61102;51.956;5.878;2023-04-15T10:50:31;5.47;;;1.75;;
72951;SDS011;61102;51.956;5.878;2023-04-15T10:52:57;5.75;;;1.50;;
72951;SDS011;61102;51.956;5.878;2023-04-15T10:55:30;5.30;;;1.55;;
72951;SDS011;61102;51.956;5.878;2023-04-15T10:57:58;4.03;;;1.50;;
72951;SDS011;61102;51.956;5.878;2023-04-15T11:00:29;4.72;;;1.40;;
72951;SDS011;61102;51.956;5.878;2023-04-15T11:02:58;3.90;;;1.20;;
72951;SDS011;61102;51.956;5.878;2023-04-15T11:08:10;3.90;;;1.20;;
72951;SDS011;61102;51.956;5.878;2023-04-15T11:20:40;4.32;;;1.20;;
72951;SDS011;61102;51.956;5.878;2023-04-15T11:23:09;4.80;;;1.42;;
72951;SDS011;61102;51.956;5.878;2023-04-15T11:25:35;4.20;;;1.00;;
72951;SDS011;61102;51.956;5.878;2023-04-15T11:28:02;3.42;;;1.10;;
72951;SDS011;61102;51.956;5.878;2023-04-15T11:30:30;3.22;;;0.88;;
72951;SDS011;61102;51.956;5.878;2023-04-15T11:32:58;3.20;;;0.90;;
72951;SDS011;61102;51.956;5.878;2023-04-15T11:35:31;4.45;;;1.20;;
72951;SDS011;61102;51.956;5.878;2023-04-15T11:37:57;3.25;;;1.00;;
72951;SDS011;61102;51.956;5.878;2023-04-15T11:40:28;2.40;;;0.90;;
72951;SDS011;61102;51.956;5.878;2023-04-15T11:48:28;5.45;;;1.30;;
72951;SDS011;61102;51.956;5.878;2023-04-15T11:51:02;5.28;;;1.15;;
72951;SDS011;61102;51.956;5.878;2023-04-15T11:53:46;2.20;;;0.80;;
72951;SDS011;61102;51.956;5.878;2023-04-15T11:56:23;4.68;;;0.90;;
72951;SDS011;61102;51.956;5.878;2023-04-15T11:58:51;4.60;;;0.90;;
72951;SDS011;61102;51.956;5.878;2023-04-15T12:01:19;3.55;;;1.00;;
72951;SDS011;61102;51.956;5.878;2023-04-15T12:03:45;3.00;;;0.80;;
72951;SDS011;61102;51.956;5.878;2023-04-15T12:09:03;3.22;;;0.88;;
72951;SDS011;61102;51.956;5.878;2023-04-15T12:11:33;2.05;;;0.80;;
72951;SDS011;61102;51.956;5.878;2023-04-15T12:16:42;2.10;;;0.70;;
72951;SDS011;61102;51.956;5.878;2023-04-15T12:19:11;2.30;;;0.65;;
72951;SDS011;61102;51.956;5.878;2023-04-15T12:21:39;2.67;;;0.70;;
72951;SDS011;61102;51.956;5.878;2023-04-15T12:24:08;3.08;;;0.80;;
72951;SDS011;61102;51.956;5.878;2023-04-15T12:26:37;2.47;;;0.70;;
72951;SDS011;61102;51.956;5.878;2023-04-15T12:29:18;2.90;;;0.70;;
72951;SDS011;61102;51.956;5.878;2023-04-15T12:31:52;2.20;;;0.60;;
72951;SDS011;61102;51.956;5.878;2023-04-15T12:34:29;3.33;;;0.80;;
72951;SDS011;61102;51.956;5.878;2023-04-15T12:36:58;2.60;;;0.82;;
72951;SDS011;61102;51.956;5.878;2023-04-15T12:39:27;1.67;;;0.57;;
72951;SDS011;61102;51.956;5.878;2023-04-15T12:41:55;4.72;;;0.80;;
72951;SDS011;61102;51.956;5.878;2023-04-15T12:44:22;2.78;;;0.80;;
72951;SDS011;61102;51.956;5.878;2023-04-15T12:46:49;5.25;;;1.02;;
72951;SDS011;61102;51.956;5.878;2023-04-15T12:49:17;2.33;;;0.75;;
72951;SDS011;61102;51.956;5.878;2023-04-15T12:51:48;3.67;;;0.88;;
72951;SDS011;61102;51.956;5.878;2023-04-15T12:54:18;3.05;;;0.93;;
72951;SDS011;61102;51.956;5.878;2023-04-15T12:56:45;3.40;;;1.00;;
72951;SDS011;61102;51.956;5.878;2023-04-15T12:59:12;5.20;;;1.17;;
72951;SDS011;61102;51.956;5.878;2023-04-15T13:01:39;2.88;;;0.90;;
72951;SDS011;61102;51.956;5.878;2023-04-15T13:04:05;2.75;;;0.82;;
72951;SDS011;61102;51.956;5.878;2023-04-15T13:06:31;5.03;;;0.95;;
72951;SDS011;61102;51.956;5.878;2023-04-15T13:08:58;2.88;;;0.80;;
72951;SDS011;61102;51.956;5.878;2023-04-15T13:11:26;2.80;;;0.73;;
72951;SDS011;61102;51.956;5.878;2023-04-15T13:14:05;2.70;;;0.80;;
72951;SDS011;61102;51.956;5.878;2023-04-15T13:16:33;1.38;;;0.70;;
72951;SDS011;61102;51.956;5.878;2023-04-15T13:19:03;3.22;;;0.80;;
72951;SDS011;61102;51.956;5.878;2023-04-15T13:21:30;4.03;;;0.80;;
72951;SDS011;61102;51.956;5.878;2023-04-15T13:23:59;3.00;;;0.70;;
72951;SDS011;61102;51.956;5.878;2023-04-15T13:26:26;3.35;;;0.70;;
72951;SDS011;61102;51.956;5.878;2023-04-15T13:28:52;2.35;;;0.52;;
72951;SDS011;61102;51.956;5.878;2023-04-15T13:31:18;2.17;;;0.60;;
72951;SDS011;61102;51.956;5.878;2023-04-15T13:33:45;1.23;;;0.50;;
72951;SDS011;61102;51.956;5.878;2023-04-15T13:36:11;4.45;;;0.90;;
72951;SDS011;61102;51.956;5.878;2023-04-15T13:38:37;2.25;;;0.50;;
72951;SDS011;61102;51.956;5.878;2023-04-15T13:41:03;2.83;;;0.50;;
72951;SDS011;61102;51.956;5.878;2023-04-15T13:43:29;1.23;;;0.50;;
72951;SDS011;61102;51.956;5.878;2023-04-15T13:45:58;3.13;;;0.57;;
72951;SDS011;61102;51.956;5.878;2023-04-15T13:48:24;3.30;;;0.75;;
72951;SDS011;61102;51.956;5.878;2023-04-15T13:50:50;3.10;;;0.70;;
72951;SDS011;61102;51.956;5.878;2023-04-15T13:53:16;3.05;;;0.70;;
72951;SDS011;61102;51.956;5.878;2023-04-15T13:55:42;2.60;;;0.63;;
72951;SDS011;61102;51.956;5.878;2023-04-15T13:58:08;2.58;;;0.50;;
72951;SDS011;61102;51.956;5.878;2023-04-15T14:00:35;1.67;;;0.50;;
72951;SDS011;61102;51.956;5.878;2023-04-15T14:03:02;3.15;;;0.60;;
72951;SDS011;61102;51.956;5.878;2023-04-15T14:05:28;2.70;;;0.60;;
72951;SDS011;61102;51.956;5.878;2023-04-15T14:07:54;1.60;;;0.50;;
72951;SDS011;61102;51.956;5.878;2023-04-15T14:10:20;1.52;;;0.40;;
72951;SDS011;61102;51.956;5.878;2023-04-15T14:12:46;2.35;;;0.50;;
72951;SDS011;61102;51.956;5.878;2023-04-15T14:15:12;0.98;;;0.45;;
72951;SDS011;61102;51.956;5.878;2023-04-15T14:17:38;2.45;;;0.47;;
72951;SDS011;61102;51.956;5.878;2023-04-15T14:20:07;2.40;;;0.50;;
72951;SDS011;61102;51.956;5.878;2023-04-15T14:22:33;2.03;;;0.60;;
72951;SDS011;61102;51.956;5.878;2023-04-15T14:25:00;1.40;;;0.50;;
72951;SDS011;61102;51.956;5.878;2023-04-15T14:27:26;1.33;;;0.50;;
72951;SDS011;61102;51.956;5.878;2023-04-15T14:29:53;3.53;;;0.85;;
72951;SDS011;61102;51.956;5.878;2023-04-15T14:32:19;2.08;;;0.70;;
72951;SDS011;61102;51.956;5.878;2023-04-15T14:34:45;3.85;;;0.63;;
72951;SDS011;61102;51.956;5.878;2023-04-15T14:37:11;3.95;;;0.63;;
72951;SDS011;61102;51.956;5.878;2023-04-15T14:39:37;1.90;;;0.57;;
72951;SDS011;61102;51.956;5.878;2023-04-15T14:42:04;2.13;;;0.50;;
72951;SDS011;61102;51.956;5.878;2023-04-15T14:44:30;3.22;;;0.50;;
72951;SDS011;61102;51.956;5.878;2023-04-15T14:46:56;2.92;;;0.70;;
72951;SDS011;61102;51.956;5.878;2023-04-15T14:49:23;3.58;;;0.70;;
72951;SDS011;61102;51.956;5.878;2023-04-15T14:51:49;1.98;;;0.52;;
72951;SDS011;61102;51.956;5.878;2023-04-15T14:54:15;3.42;;;0.70;;
72951;SDS011;61102;51.956;5.878;2023-04-15T14:56:41;3.33;;;0.70;;
72951;SDS011;61102;51.956;5.878;2023-04-15T14:59:07;2.92;;;0.60;;
72951;SDS011;61102;51.956;5.878;2023-04-15T15:01:33;2.70;;;0.68;;
72951;SDS011;61102;51.956;5.878;2023-04-15T15:03:59;3.40;;;0.88;;
72951;SDS011;61102;51.956;5.878;2023-04-15T15:06:25;1.85;;;0.68;;
72951;SDS011;61102;51.956;5.878;2023-04-15T15:08:52;1.45;;;0.60;;
72951;SDS011;61102;51.956;5.878;2023-04-15T15:11:18;4.38;;;0.70;;
72951;SDS011;61102;51.956;5.878;2023-04-15T15:13:44;2.72;;;0.60;;
72951;SDS011;61102;51.956;5.878;2023-04-15T15:16:10;4.28;;;0.75;;
72951;SDS011;61102;51.956;5.878;2023-04-15T15:18:36;1.50;;;0.50;;
72951;SDS011;61102;51.956;5.878;2023-04-15T15:21:04;4.75;;;0.60;;